sensor_id;sensor_type;location;lat;lon;timestamp;P1;durP1;ratioP1;P2;durP2;ratioP2
45039;SDS011;30778;53.574;7.770;2023-05-07T00:02:23;21.20;;;12.80;;
45039;SDS011;30778;53.574;7.770;2023-05-07T00:04:49;22.00;;;12.93;;
45039;SDS011;30778;53.574;7.770;2023-05-07T00:07:15;26.52;;;12.55;;
45039;SDS011;30778;53.574;7.770;2023-05-07T00:09:40;24.58;;;12.45;;
45039;SDS011;30778;53.574;7.770;2023-05-07T00:12:06;22.67;;;13.77;;
45039;SDS011;30778;53.574;7.770;2023-05-07T00:14:32;23.27;;;12.57;;
45039;SDS011;30778;53.574;7.770;2023-05-07T00:16:57;23.98;;;11.95;;
45039;SDS011;30778;53.574;7.770;2023-05-07T00:19:23;25.00;;;13.05;;
45039;SDS011;30778;53.574;7.770;2023-05-07T00:21:48;29.75;;;13.25;;
45039;SDS011;30778;53.574;7.770;2023-05-07T00:24:14;21.95;;;12.98;;
45039;SDS011;30778;53.574;7.770;2023-05-07T00:26:39;25.67;;;14.20;;
45039;SDS011;30778;53.574;7.770;2023-05-07T00:29:05;34.75;;;14.55;;
45039;SDS011;30778;53.574;7.770;2023-05-07T00:31:30;29.20;;;13.82;;
45039;SDS011;30778;53.574;7.770;2023-05-07T00:33:56;22.15;;;11.93;;
45039;SDS011;30778;53.574;7.770;2023-05-07T00:36:21;24.08;;;13.68;;
45039;SDS011;30778;53.574;7.770;2023-05-07T00:38:47;22.48;;;13.30;;
45039;SDS011;30778;53.574;7.770;2023-05-07T00:41:12;24.70;;;11.95;;
45039;SDS011;30778;53.574;7.770;2023-05-07T00:43:38;22.23;;;13.18;;
45039;SDS011;30778;53.574;7.770;2023-05-07T00:46:03;20.48;;;12.40;;
45039;SDS011;30778;53.574;7.770;2023-05-07T00:48:29;25.15;;;13.00;;
45039;SDS011;30778;53.574;7.770;2023-05-07T00:50:55;22.95;;;12.27;;
45039;SDS011;30778;53.574;7.770;2023-05-07T00:53:21;24.80;;;14.35;;
45039;SDS011;30778;53.574;7.770;2023-05-07T00:55:47;23.40;;;12.60;;
45039;SDS011;30778;53.574;7.770;2023-05-07T00:58:14;24.15;;;13.63;;
45039;SDS011;30778;53.574;7.770;2023-05-07T01:00:40;24.05;;;12.73;;
45039;SDS011;30778;53.574;7.770;2023-05-07T01:03:05;22.42;;;13.15;;
45039;SDS011;30778;53.574;7.770;2023-05-07T01:05:31;21.23;;;12.80;;
45039;SDS011;30778;53.574;7.770;2023-05-07T01:07:57;23.95;;;13.70;;
45039;SDS011;30778;53.574;7.770;2023-05-07T01:10:23;19.40;;;12.50;;
45039;SDS011;30778;53.574;7.770;2023-05-07T01:12:49;29.55;;;13.68;;
45039;SDS011;30778;53.574;7.770;2023-05-07T01:15:16;33.25;;;13.57;;
45039;SDS011;30778;53.574;7.770;2023-05-07T01:17:43;19.02;;;12.07;;
45039;SDS011;30778;53.574;7.770;2023-05-07T01:20:18;17.75;;;11.90;;
45039;SDS011;30778;53.574;7.770;2023-05-07T01:22:45;18.80;;;12.20;;
45039;SDS011;30778;53.574;7.770;2023-05-07T01:25:12;20.17;;;12.35;;
45039;SDS011;30778;53.574;7.770;2023-05-07T01:27:42;27.75;;;12.95;;
45039;SDS011;30778;53.574;7.770;2023-05-07T01:30:07;20.48;;;12.65;;
45039;SDS011;30778;53.574;7.770;2023-05-07T01:32:35;21.63;;;12.25;;
45039;SDS011;30778;53.574;7.770;2023-05-07T01:35:05;19.10;;;12.80;;
45039;SDS011;30778;53.574;7.770;2023-05-07T01:37:34;22.40;;;11.18;;
45039;SDS011;30778;53.574;7.770;2023-05-07T01:40:01;18.50;;;12.45;;
45039;SDS011;30778;53.574;7.770;2023-05-07T01:42:27;19.67;;;11.55;;
45039;SDS011;30778;53.574;7.770;2023-05-07T01:44:54;20.30;;;11.88;;
45039;SDS011;30778;53.574;7.770;2023-05-07T01:47:20;21.30;;;12.00;;
45039;SDS011;30778;53.574;7.770;2023-05-07T01:49:46;19.33;;;12.25;;
45039;SDS011;30778;53.574;7.770;2023-05-07T01:52:12;19.45;;;12.50;;
45039;SDS011;30778;53.574;7.770;2023-05-07T01:54:37;22.88;;;11.95;;
45039;SDS011;30778;53.574;7.770;2023-05-07T01:57:03;20.08;;;11.38;;
45039;SDS011;30778;53.574;7.770;2023-05-07T01:59:29;22.23;;;12.23;;
45039;SDS011;30778;53.574;7.770;2023-05-07T02:01:55;25.05;;;13.85;;
45039;SDS011;30778;53.574;7.770;2023-05-07T02:04:20;21.58;;;12.20;;
45039;SDS011;30778;53.574;7.770;2023-05-07T02:06:47;20.75;;;13.10;;
45039;SDS011;30778;53.574;7.770;2023-05-07T02:09:13;23.92;;;13.38;;
45039;SDS011;30778;53.574;7.770;2023-05-07T02:11:41;21.13;;;14.10;;
45039;SDS011;30778;53.574;7.770;2023-05-07T02:14:07;20.65;;;13.65;;
45039;SDS011;30778;53.574;7.770;2023-05-07T02:16:33;19.55;;;13.30;;
45039;SDS011;30778;53.574;7.770;2023-05-07T02:18:58;26.85;;;14.27;;
45039;SDS011;30778;53.574;7.770;2023-05-07T02:21:24;22.83;;;12.93;;
45039;SDS011;30778;53.574;7.770;2023-05-07T02:23:50;24.23;;;12.68;;
45039;SDS011;30778;53.574;7.770;2023-05-07T02:26:15;21.27;;;12.57;;
45039;SDS011;30778;53.574;7.770;2023-05-07T02:28:41;22.85;;;12.85;;
45039;SDS011;30778;53.574;7.770;2023-05-07T02:31:07;17.55;;;10.98;;
45039;SDS011;30778;53.574;7.770;2023-05-07T02:33:33;19.17;;;11.48;;
45039;SDS011;30778;53.574;7.770;2023-05-07T02:36:05;19.98;;;11.23;;
45039;SDS011;30778;53.574;7.770;2023-05-07T02:38:40;15.85;;;10.07;;
45039;SDS011;30778;53.574;7.770;2023-05-07T02:41:06;15.15;;;9.75;;
45039;SDS011;30778;53.574;7.770;2023-05-07T02:43:31;15.88;;;9.90;;
45039;SDS011;30778;53.574;7.770;2023-05-07T02:46:04;16.48;;;10.02;;
45039;SDS011;30778;53.574;7.770;2023-05-07T02:48:32;14.07;;;9.85;;
45039;SDS011;30778;53.574;7.770;2023-05-07T02:50:58;15.50;;;9.77;;
45039;SDS011;30778;53.574;7.770;2023-05-07T02:53:25;18.67;;;10.18;;
45039;SDS011;30778;53.574;7.770;2023-05-07T02:55:58;18.55;;;10.77;;
45039;SDS011;30778;53.574;7.770;2023-05-07T02:58:25;20.33;;;10.27;;
45039;SDS011;30778;53.574;7.770;2023-05-07T03:00:51;21.35;;;11.45;;
45039;SDS011;30778;53.574;7.770;2023-05-07T03:03:26;18.83;;;11.63;;
45039;SDS011;30778;53.574;7.770;2023-05-07T03:05:52;16.38;;;10.65;;
45039;SDS011;30778;53.574;7.770;2023-05-07T03:08:17;19.60;;;10.93;;
45039;SDS011;30778;53.574;7.770;2023-05-07T03:10:43;15.80;;;10.88;;
45039;SDS011;30778;53.574;7.770;2023-05-07T03:13:08;16.50;;;11.05;;
45039;SDS011;30778;53.574;7.770;2023-05-07T03:15:34;18.80;;;11.30;;
45039;SDS011;30778;53.574;7.770;2023-05-07T03:17:59;17.35;;;11.30;;
45039;SDS011;30778;53.574;7.770;2023-05-07T03:20:25;20.70;;;11.27;;
45039;SDS011;30778;53.574;7.770;2023-05-07T03:22:51;21.83;;;12.35;;
45039;SDS011;30778;53.574;7.770;2023-05-07T03:25:16;21.58;;;11.25;;
45039;SDS011;30778;53.574;7.770;2023-05-07T03:27:42;20.05;;;10.60;;
45039;SDS011;30778;53.574;7.770;2023-05-07T03:30:07;19.38;;;12.00;;
45039;SDS011;30778;53.574;7.770;2023-05-07T03:32:34;27.45;;;11.90;;
45039;SDS011;30778;53.574;7.770;2023-05-07T03:35:03;18.70;;;11.27;;
45039;SDS011;30778;53.574;7.770;2023-05-07T03:37:30;17.55;;;10.90;;
45039;SDS011;30778;53.574;7.770;2023-05-07T03:39:56;18.08;;;11.40;;
45039;SDS011;30778;53.574;7.770;2023-05-07T03:42:22;22.50;;;11.57;;
45039;SDS011;30778;53.574;7.770;2023-05-07T03:44:51;19.52;;;11.00;;
45039;SDS011;30778;53.574;7.770;2023-05-07T03:47:16;21.48;;;11.80;;
45039;SDS011;30778;53.574;7.770;2023-05-07T03:49:43;21.88;;;12.07;;
45039;SDS011;30778;53.574;7.770;2023-05-07T03:52:08;21.63;;;12.02;;
45039;SDS011;30778;53.574;7.770;2023-05-07T03:54:34;22.23;;;11.32;;
45039;SDS011;30778;53.574;7.770;2023-05-07T03:57:00;17.23;;;10.50;;
45039;SDS011;30778;53.574;7.770;2023-05-07T03:59:26;18.77;;;10.65;;
45039;SDS011;30778;53.574;7.770;2023-05-07T04:01:51;19.25;;;10.75;;
45039;SDS011;30778;53.574;7.770;2023-05-07T04:04:19;18.05;;;9.93;;
45039;SDS011;30778;53.574;7.770;2023-05-07T04:06:45;20.38;;;11.32;;
45039;SDS011;30778;53.574;7.770;2023-05-07T04:09:11;18.05;;;10.40;;
45039;SDS011;30778;53.574;7.770;2023-05-07T04:11:37;16.27;;;9.98;;
45039;SDS011;30778;53.574;7.770;2023-05-07T04:14:07;17.27;;;11.20;;
45039;SDS011;30778;53.574;7.770;2023-05-07T04:16:34;20.15;;;11.38;;
45039;SDS011;30778;53.574;7.770;2023-05-07T04:19:00;18.20;;;10.80;;
45039;SDS011;30778;53.574;7.770;2023-05-07T04:21:26;16.50;;;10.32;;
45039;SDS011;30778;53.574;7.770;2023-05-07T04:23:52;20.55;;;11.55;;
45039;SDS011;30778;53.574;7.770;2023-05-07T04:26:18;21.58;;;10.75;;
45039;SDS011;30778;53.574;7.770;2023-05-07T04:28:45;15.20;;;9.52;;
45039;SDS011;30778;53.574;7.770;2023-05-07T04:31:10;18.65;;;10.27;;
45039;SDS011;30778;53.574;7.770;2023-05-07T04:33:37;17.80;;;10.35;;
45039;SDS011;30778;53.574;7.770;2023-05-07T04:36:04;16.20;;;10.25;;
45039;SDS011;30778;53.574;7.770;2023-05-07T04:38:34;17.00;;;9.68;;
45039;SDS011;30778;53.574;7.770;2023-05-07T04:41:04;17.80;;;11.05;;
45039;SDS011;30778;53.574;7.770;2023-05-07T04:43:33;19.15;;;10.65;;
45039;SDS011;30778;53.574;7.770;2023-05-07T04:46:00;22.45;;;11.45;;
45039;SDS011;30778;53.574;7.770;2023-05-07T04:48:26;16.75;;;9.73;;
45039;SDS011;30778;53.574;7.770;2023-05-07T04:50:52;19.02;;;10.38;;
45039;SDS011;30778;53.574;7.770;2023-05-07T04:53:19;18.48;;;11.32;;
45039;SDS011;30778;53.574;7.770;2023-05-07T04:55:45;19.08;;;11.20;;
45039;SDS011;30778;53.574;7.770;2023-05-07T04:58:11;18.92;;;10.90;;
45039;SDS011;30778;53.574;7.770;2023-05-07T05:00:38;17.52;;;10.55;;
45039;SDS011;30778;53.574;7.770;2023-05-07T05:03:06;21.98;;;11.02;;
45039;SDS011;30778;53.574;7.770;2023-05-07T05:05:32;15.50;;;9.77;;
45039;SDS011;30778;53.574;7.770;2023-05-07T05:07:58;18.70;;;10.15;;
45039;SDS011;30778;53.574;7.770;2023-05-07T05:10:24;18.27;;;10.45;;
45039;SDS011;30778;53.574;7.770;2023-05-07T05:12:51;19.23;;;10.13;;
45039;SDS011;30778;53.574;7.770;2023-05-07T05:15:16;21.10;;;9.55;;
45039;SDS011;30778;53.574;7.770;2023-05-07T05:17:42;14.18;;;9.05;;
45039;SDS011;30778;53.574;7.770;2023-05-07T05:20:07;18.52;;;9.65;;
45039;SDS011;30778;53.574;7.770;2023-05-07T05:22:35;17.70;;;9.70;;
45039;SDS011;30778;53.574;7.770;2023-05-07T05:25:01;18.20;;;10.05;;
45039;SDS011;30778;53.574;7.770;2023-05-07T05:27:29;16.85;;;9.68;;
45039;SDS011;30778;53.574;7.770;2023-05-07T05:29:55;16.35;;;8.90;;
45039;SDS011;30778;53.574;7.770;2023-05-07T05:32:21;15.88;;;9.48;;
45039;SDS011;30778;53.574;7.770;2023-05-07T05:34:48;18.73;;;10.00;;
45039;SDS011;30778;53.574;7.770;2023-05-07T05:37:13;21.10;;;8.68;;
45039;SDS011;30778;53.574;7.770;2023-05-07T05:39:45;15.52;;;8.63;;
45039;SDS011;30778;53.574;7.770;2023-05-07T05:42:10;17.63;;;8.30;;
45039;SDS011;30778;53.574;7.770;2023-05-07T05:44:36;13.75;;;8.82;;
45039;SDS011;30778;53.574;7.770;2023-05-07T05:47:02;12.30;;;8.30;;
45039;SDS011;30778;53.574;7.770;2023-05-07T05:49:29;15.95;;;9.00;;
45039;SDS011;30778;53.574;7.770;2023-05-07T05:51:54;14.35;;;7.60;;
45039;SDS011;30778;53.574;7.770;2023-05-07T05:54:23;14.30;;;7.85;;
45039;SDS011;30778;53.574;7.770;2023-05-07T05:56:48;12.77;;;7.68;;
45039;SDS011;30778;53.574;7.770;2023-05-07T05:59:15;11.43;;;7.55;;
45039;SDS011;30778;53.574;7.770;2023-05-07T06:01:41;11.38;;;6.75;;
45039;SDS011;30778;53.574;7.770;2023-05-07T06:04:07;13.93;;;8.82;;
45039;SDS011;30778;53.574;7.770;2023-05-07T06:06:33;13.10;;;7.68;;
45039;SDS011;30778;53.574;7.770;2023-05-07T06:09:00;13.25;;;7.32;;
45039;SDS011;30778;53.574;7.770;2023-05-07T06:11:33;12.95;;;7.50;;
45039;SDS011;30778;53.574;7.770;2023-05-07T06:14:02;12.38;;;6.82;;
45039;SDS011;30778;53.574;7.770;2023-05-07T06:16:29;14.88;;;7.93;;
45039;SDS011;30778;53.574;7.770;2023-05-07T06:18:56;13.75;;;7.80;;
45039;SDS011;30778;53.574;7.770;2023-05-07T06:21:21;9.68;;;7.20;;
45039;SDS011;30778;53.574;7.770;2023-05-07T06:23:47;13.30;;;7.20;;
45039;SDS011;30778;53.574;7.770;2023-05-07T06:26:32;13.05;;;7.57;;
45039;SDS011;30778;53.574;7.770;2023-05-07T06:28:57;10.45;;;7.00;;
45039;SDS011;30778;53.574;7.770;2023-05-07T06:31:28;13.48;;;6.70;;
45039;SDS011;30778;53.574;7.770;2023-05-07T06:34:02;12.50;;;7.28;;
45039;SDS011;30778;53.574;7.770;2023-05-07T06:36:33;10.23;;;7.43;;
45039;SDS011;30778;53.574;7.770;2023-05-07T06:39:04;10.35;;;7.00;;
45039;SDS011;30778;53.574;7.770;2023-05-07T06:41:29;12.43;;;7.35;;
45039;SDS011;30778;53.574;7.770;2023-05-07T06:44:00;12.50;;;8.23;;
45039;SDS011;30778;53.574;7.770;2023-05-07T06:46:34;9.98;;;6.13;;
45039;SDS011;30778;53.574;7.770;2023-05-07T06:49:00;15.02;;;8.07;;
45039;SDS011;30778;53.574;7.770;2023-05-07T06:51:26;12.57;;;7.30;;
45039;SDS011;30778;53.574;7.770;2023-05-07T06:53:53;12.52;;;7.22;;
45039;SDS011;30778;53.574;7.770;2023-05-07T06:56:18;14.27;;;8.32;;
45039;SDS011;30778;53.574;7.770;2023-05-07T06:58:46;12.35;;;8.15;;
45039;SDS011;30778;53.574;7.770;2023-05-07T07:01:12;13.90;;;7.85;;
45039;SDS011;30778;53.574;7.770;2023-05-07T07:03:40;12.73;;;7.72;;
45039;SDS011;30778;53.574;7.770;2023-05-07T07:06:07;12.85;;;6.72;;
45039;SDS011;30778;53.574;7.770;2023-05-07T07:08:33;11.90;;;8.25;;
45039;SDS011;30778;53.574;7.770;2023-05-07T07:10:59;12.98;;;7.75;;
45039;SDS011;30778;53.574;7.770;2023-05-07T07:13:28;13.77;;;7.25;;
45039;SDS011;30778;53.574;7.770;2023-05-07T07:18:23;13.07;;;6.97;;
45039;SDS011;30778;53.574;7.770;2023-05-07T07:20:52;12.65;;;8.02;;
45039;SDS011;30778;53.574;7.770;2023-05-07T07:23:17;13.73;;;8.27;;
45039;SDS011;30778;53.574;7.770;2023-05-07T07:25:43;15.38;;;7.95;;
45039;SDS011;30778;53.574;7.770;2023-05-07T07:28:10;11.13;;;7.40;;
45039;SDS011;30778;53.574;7.770;2023-05-07T07:30:37;12.07;;;7.97;;
45039;SDS011;30778;53.574;7.770;2023-05-07T07:33:02;11.73;;;6.80;;
45039;SDS011;30778;53.574;7.770;2023-05-07T07:35:32;11.98;;;8.10;;
45039;SDS011;30778;53.574;7.770;2023-05-07T07:38:00;13.13;;;8.40;;
45039;SDS011;30778;53.574;7.770;2023-05-07T07:40:26;13.18;;;7.53;;
45039;SDS011;30778;53.574;7.770;2023-05-07T07:42:53;14.85;;;8.57;;
45039;SDS011;30778;53.574;7.770;2023-05-07T07:45:18;12.63;;;8.13;;
45039;SDS011;30778;53.574;7.770;2023-05-07T07:47:47;12.45;;;8.27;;
45039;SDS011;30778;53.574;7.770;2023-05-07T07:50:12;11.68;;;7.95;;
45039;SDS011;30778;53.574;7.770;2023-05-07T07:52:38;14.45;;;8.25;;
45039;SDS011;30778;53.574;7.770;2023-05-07T07:55:05;10.43;;;6.93;;
45039;SDS011;30778;53.574;7.770;2023-05-07T07:57:32;13.88;;;7.55;;
45039;SDS011;30778;53.574;7.770;2023-05-07T07:59:58;10.27;;;6.82;;
45039;SDS011;30778;53.574;7.770;2023-05-07T08:02:24;10.10;;;7.45;;
45039;SDS011;30778;53.574;7.770;2023-05-07T08:04:50;9.73;;;7.22;;
45039;SDS011;30778;53.574;7.770;2023-05-07T08:07:16;11.30;;;6.95;;
45039;SDS011;30778;53.574;7.770;2023-05-07T08:09:47;12.35;;;7.18;;
45039;SDS011;30778;53.574;7.770;2023-05-07T08:12:14;11.98;;;7.93;;
45039;SDS011;30778;53.574;7.770;2023-05-07T08:14:41;12.35;;;7.15;;
45039;SDS011;30778;53.574;7.770;2023-05-07T08:17:07;12.80;;;7.95;;
45039;SDS011;30778;53.574;7.770;2023-05-07T08:19:36;11.43;;;7.40;;
45039;SDS011;30778;53.574;7.770;2023-05-07T08:22:03;11.18;;;8.02;;
45039;SDS011;30778;53.574;7.770;2023-05-07T08:24:29;12.50;;;8.93;;
45039;SDS011;30778;53.574;7.770;2023-05-07T08:26:55;12.43;;;8.55;;
45039;SDS011;30778;53.574;7.770;2023-05-07T08:29:21;12.18;;;7.93;;
45039;SDS011;30778;53.574;7.770;2023-05-07T08:31:47;11.32;;;8.02;;
45039;SDS011;30778;53.574;7.770;2023-05-07T08:34:13;9.95;;;7.13;;
45039;SDS011;30778;53.574;7.770;2023-05-07T08:36:41;10.23;;;7.25;;
45039;SDS011;30778;53.574;7.770;2023-05-07T08:39:08;12.48;;;7.53;;
45039;SDS011;30778;53.574;7.770;2023-05-07T08:41:34;11.30;;;7.50;;
45039;SDS011;30778;53.574;7.770;2023-05-07T08:44:01;12.93;;;7.75;;
45039;SDS011;30778;53.574;7.770;2023-05-07T08:46:29;10.73;;;7.88;;
45039;SDS011;30778;53.574;7.770;2023-05-07T08:48:57;11.48;;;7.57;;
45039;SDS011;30778;53.574;7.770;2023-05-07T08:51:23;9.90;;;7.13;;
45039;SDS011;30778;53.574;7.770;2023-05-07T08:53:50;12.25;;;7.82;;
45039;SDS011;30778;53.574;7.770;2023-05-07T08:56:22;10.18;;;7.35;;
45039;SDS011;30778;53.574;7.770;2023-05-07T08:58:50;11.07;;;6.82;;
45039;SDS011;30778;53.574;7.770;2023-05-07T09:01:16;9.68;;;6.50;;
45039;SDS011;30778;53.574;7.770;2023-05-07T09:03:45;10.23;;;7.10;;
45039;SDS011;30778;53.574;7.770;2023-05-07T09:06:13;12.77;;;8.73;;
45039;SDS011;30778;53.574;7.770;2023-05-07T09:08:39;10.90;;;6.57;;
45039;SDS011;30778;53.574;7.770;2023-05-07T09:11:06;8.48;;;6.30;;
45039;SDS011;30778;53.574;7.770;2023-05-07T09:13:32;10.05;;;6.60;;
45039;SDS011;30778;53.574;7.770;2023-05-07T09:16:09;9.02;;;6.55;;
45039;SDS011;30778;53.574;7.770;2023-05-07T09:18:40;11.55;;;7.10;;
45039;SDS011;30778;53.574;7.770;2023-05-07T09:21:09;7.68;;;6.00;;
45039;SDS011;30778;53.574;7.770;2023-05-07T09:23:35;12.57;;;6.10;;
45039;SDS011;30778;53.574;7.770;2023-05-07T09:26:01;8.68;;;6.60;;
45039;SDS011;30778;53.574;7.770;2023-05-07T09:28:29;10.75;;;7.63;;
45039;SDS011;30778;53.574;7.770;2023-05-07T09:30:55;10.70;;;7.15;;
45039;SDS011;30778;53.574;7.770;2023-05-07T09:33:21;11.15;;;6.55;;
45039;SDS011;30778;53.574;7.770;2023-05-07T09:35:53;8.82;;;6.50;;
45039;SDS011;30778;53.574;7.770;2023-05-07T09:38:20;6.00;;;5.40;;
45039;SDS011;30778;53.574;7.770;2023-05-07T09:40:52;10.38;;;6.32;;
45039;SDS011;30778;53.574;7.770;2023-05-07T09:43:31;9.57;;;6.78;;
45039;SDS011;30778;53.574;7.770;2023-05-07T09:46:06;7.70;;;5.45;;
45039;SDS011;30778;53.574;7.770;2023-05-07T09:48:37;8.20;;;5.72;;
45039;SDS011;30778;53.574;7.770;2023-05-07T09:53:59;8.18;;;6.07;;
45039;SDS011;30778;53.574;7.770;2023-05-07T09:56:29;8.88;;;5.88;;
45039;SDS011;30778;53.574;7.770;2023-05-07T09:59:00;7.70;;;5.90;;
45039;SDS011;30778;53.574;7.770;2023-05-07T10:01:29;7.10;;;5.07;;
45039;SDS011;30778;53.574;7.770;2023-05-07T10:03:56;8.23;;;5.32;;
45039;SDS011;30778;53.574;7.770;2023-05-07T10:06:24;9.98;;;6.53;;
45039;SDS011;30778;53.574;7.770;2023-05-07T10:08:53;8.35;;;5.60;;
45039;SDS011;30778;53.574;7.770;2023-05-07T10:11:22;12.05;;;6.45;;
45039;SDS011;30778;53.574;7.770;2023-05-07T10:13:48;7.60;;;5.03;;
45039;SDS011;30778;53.574;7.770;2023-05-07T10:16:14;10.13;;;5.45;;
45039;SDS011;30778;53.574;7.770;2023-05-07T10:18:45;7.63;;;5.45;;
45039;SDS011;30778;53.574;7.770;2023-05-07T10:21:17;7.45;;;4.72;;
45039;SDS011;30778;53.574;7.770;2023-05-07T10:23:47;7.07;;;5.00;;
45039;SDS011;30778;53.574;7.770;2023-05-07T10:26:15;5.97;;;4.85;;
45039;SDS011;30778;53.574;7.770;2023-05-07T10:28:44;8.88;;;5.60;;
45039;SDS011;30778;53.574;7.770;2023-05-07T10:34:07;4.95;;;4.45;;
45039;SDS011;30778;53.574;7.770;2023-05-07T10:36:35;5.93;;;4.68;;
45039;SDS011;30778;53.574;7.770;2023-05-07T10:39:02;5.55;;;4.40;;
45039;SDS011;30778;53.574;7.770;2023-05-07T10:41:28;7.10;;;5.47;;
45039;SDS011;30778;53.574;7.770;2023-05-07T10:43:53;7.35;;;5.65;;
45039;SDS011;30778;53.574;7.770;2023-05-07T10:46:24;7.40;;;5.40;;
45039;SDS011;30778;53.574;7.770;2023-05-07T10:51:27;5.38;;;4.10;;
45039;SDS011;30778;53.574;7.770;2023-05-07T10:56:36;6.60;;;4.78;;
45039;SDS011;30778;53.574;7.770;2023-05-07T11:02:00;6.22;;;4.68;;
45039;SDS011;30778;53.574;7.770;2023-05-07T11:05:18;7.38;;;5.18;;
45039;SDS011;30778;53.574;7.770;2023-05-07T11:07:56;6.30;;;5.63;;
45039;SDS011;30778;53.574;7.770;2023-05-07T11:10:48;6.60;;;5.50;;
45039;SDS011;30778;53.574;7.770;2023-05-07T11:16:23;6.78;;;5.20;;
45039;SDS011;30778;53.574;7.770;2023-05-07T11:18:58;8.23;;;5.85;;
45039;SDS011;30778;53.574;7.770;2023-05-07T11:24:19;6.82;;;4.78;;
45039;SDS011;30778;53.574;7.770;2023-05-07T11:26:59;6.55;;;5.30;;
45039;SDS011;30778;53.574;7.770;2023-05-07T11:29:27;5.65;;;4.40;;
45039;SDS011;30778;53.574;7.770;2023-05-07T11:32:00;7.45;;;5.75;;
45039;SDS011;30778;53.574;7.770;2023-05-07T11:34:35;6.32;;;4.90;;
45039;SDS011;30778;53.574;7.770;2023-05-07T11:37:01;7.40;;;5.53;;
45039;SDS011;30778;53.574;7.770;2023-05-07T11:42:31;6.32;;;5.20;;
45039;SDS011;30778;53.574;7.770;2023-05-07T11:44:58;5.53;;;4.70;;
45039;SDS011;30778;53.574;7.770;2023-05-07T11:47:24;9.75;;;4.72;;
45039;SDS011;30778;53.574;7.770;2023-05-07T11:49:51;7.97;;;6.10;;
45039;SDS011;30778;53.574;7.770;2023-05-07T11:52:18;6.60;;;4.95;;
45039;SDS011;30778;53.574;7.770;2023-05-07T11:54:48;5.85;;;5.32;;
45039;SDS011;30778;53.574;7.770;2023-05-07T11:57:18;6.53;;;4.82;;
45039;SDS011;30778;53.574;7.770;2023-05-07T11:59:44;8.35;;;5.10;;
45039;SDS011;30778;53.574;7.770;2023-05-07T12:02:10;5.20;;;4.70;;
45039;SDS011;30778;53.574;7.770;2023-05-07T12:04:37;7.70;;;5.35;;
45039;SDS011;30778;53.574;7.770;2023-05-07T12:07:03;6.45;;;4.80;;
45039;SDS011;30778;53.574;7.770;2023-05-07T12:09:28;5.72;;;4.95;;
45039;SDS011;30778;53.574;7.770;2023-05-07T12:11:54;5.05;;;4.57;;
45039;SDS011;30778;53.574;7.770;2023-05-07T12:14:21;5.95;;;4.88;;
45039;SDS011;30778;53.574;7.770;2023-05-07T12:16:46;6.38;;;4.55;;
45039;SDS011;30778;53.574;7.770;2023-05-07T12:19:13;6.38;;;4.88;;
45039;SDS011;30778;53.574;7.770;2023-05-07T12:21:39;8.35;;;4.70;;
45039;SDS011;30778;53.574;7.770;2023-05-07T12:24:05;10.25;;;5.30;;
45039;SDS011;30778;53.574;7.770;2023-05-07T12:26:31;6.65;;;4.38;;
45039;SDS011;30778;53.574;7.770;2023-05-07T12:28:57;6.55;;;4.95;;
45039;SDS011;30778;53.574;7.770;2023-05-07T12:31:25;5.38;;;4.88;;
45039;SDS011;30778;53.574;7.770;2023-05-07T12:33:50;5.63;;;4.65;;
45039;SDS011;30778;53.574;7.770;2023-05-07T12:36:16;7.43;;;5.18;;
45039;SDS011;30778;53.574;7.770;2023-05-07T12:38:42;9.50;;;5.45;;
45039;SDS011;30778;53.574;7.770;2023-05-07T12:41:08;9.13;;;5.90;;
45039;SDS011;30778;53.574;7.770;2023-05-07T12:43:35;7.47;;;5.13;;
45039;SDS011;30778;53.574;7.770;2023-05-07T12:46:06;5.97;;;5.38;;
45039;SDS011;30778;53.574;7.770;2023-05-07T12:48:33;8.10;;;5.28;;
45039;SDS011;30778;53.574;7.770;2023-05-07T12:50:59;8.93;;;5.40;;
45039;SDS011;30778;53.574;7.770;2023-05-07T12:53:26;5.57;;;4.80;;
45039;SDS011;30778;53.574;7.770;2023-05-07T12:55:56;6.15;;;4.80;;
45039;SDS011;30778;53.574;7.770;2023-05-07T12:58:24;7.03;;;4.80;;
45039;SDS011;30778;53.574;7.770;2023-05-07T13:00:52;7.68;;;4.63;;
45039;SDS011;30778;53.574;7.770;2023-05-07T13:03:21;6.40;;;5.20;;
45039;SDS011;30778;53.574;7.770;2023-05-07T13:05:52;8.68;;;4.97;;
45039;SDS011;30778;53.574;7.770;2023-05-07T13:08:29;5.60;;;4.95;;
45039;SDS011;30778;53.574;7.770;2023-05-07T13:10:59;7.72;;;5.72;;
45039;SDS011;30778;53.574;7.770;2023-05-07T13:13:28;5.32;;;4.63;;
45039;SDS011;30778;53.574;7.770;2023-05-07T13:15:58;7.40;;;4.40;;
45039;SDS011;30778;53.574;7.770;2023-05-07T13:18:24;6.28;;;4.45;;
45039;SDS011;30778;53.574;7.770;2023-05-07T13:20:51;7.32;;;5.47;;
45039;SDS011;30778;53.574;7.770;2023-05-07T13:23:17;5.88;;;4.65;;
45039;SDS011;30778;53.574;7.770;2023-05-07T13:25:42;6.93;;;5.25;;
45039;SDS011;30778;53.574;7.770;2023-05-07T13:28:08;8.60;;;5.50;;
45039;SDS011;30778;53.574;7.770;2023-05-07T13:30:33;9.88;;;4.80;;
45039;SDS011;30778;53.574;7.770;2023-05-07T13:32:59;8.32;;;5.18;;
45039;SDS011;30778;53.574;7.770;2023-05-07T13:35:25;5.15;;;4.50;;
45039;SDS011;30778;53.574;7.770;2023-05-07T13:37:51;9.65;;;5.30;;
45039;SDS011;30778;53.574;7.770;2023-05-07T13:40:17;11.52;;;5.28;;
45039;SDS011;30778;53.574;7.770;2023-05-07T13:42:44;8.70;;;5.40;;
45039;SDS011;30778;53.574;7.770;2023-05-07T13:45:10;9.25;;;5.00;;
45039;SDS011;30778;53.574;7.770;2023-05-07T13:47:39;7.55;;;5.57;;
45039;SDS011;30778;53.574;7.770;2023-05-07T13:50:06;8.68;;;5.45;;
45039;SDS011;30778;53.574;7.770;2023-05-07T13:52:33;6.38;;;5.10;;
45039;SDS011;30778;53.574;7.770;2023-05-07T13:54:59;6.97;;;4.60;;
45039;SDS011;30778;53.574;7.770;2023-05-07T13:57:24;6.78;;;4.30;;
45039;SDS011;30778;53.574;7.770;2023-05-07T13:59:50;6.30;;;5.05;;
45039;SDS011;30778;53.574;7.770;2023-05-07T14:02:15;7.00;;;4.95;;
45039;SDS011;30778;53.574;7.770;2023-05-07T14:04:41;8.68;;;4.55;;
45039;SDS011;30778;53.574;7.770;2023-05-07T14:07:06;5.05;;;4.28;;
45039;SDS011;30778;53.574;7.770;2023-05-07T14:09:32;7.38;;;4.95;;
45039;SDS011;30778;53.574;7.770;2023-05-07T14:11:58;5.30;;;4.80;;
45039;SDS011;30778;53.574;7.770;2023-05-07T14:14:24;5.00;;;3.95;;
45039;SDS011;30778;53.574;7.770;2023-05-07T14:16:49;6.78;;;4.50;;
45039;SDS011;30778;53.574;7.770;2023-05-07T14:19:15;5.28;;;3.85;;
45039;SDS011;30778;53.574;7.770;2023-05-07T14:21:41;4.97;;;4.03;;
45039;SDS011;30778;53.574;7.770;2023-05-07T14:24:06;7.32;;;4.40;;
45039;SDS011;30778;53.574;7.770;2023-05-07T14:26:33;8.05;;;4.05;;
45039;SDS011;30778;53.574;7.770;2023-05-07T14:28:59;6.63;;;4.20;;
45039;SDS011;30778;53.574;7.770;2023-05-07T14:31:25;8.35;;;5.18;;
45039;SDS011;30778;53.574;7.770;2023-05-07T14:33:51;5.55;;;3.92;;
45039;SDS011;30778;53.574;7.770;2023-05-07T14:36:17;6.53;;;4.10;;
45039;SDS011;30778;53.574;7.770;2023-05-07T14:38:45;6.70;;;3.50;;
45039;SDS011;30778;53.574;7.770;2023-05-07T14:41:11;5.93;;;3.25;;
45039;SDS011;30778;53.574;7.770;2023-05-07T14:43:37;5.65;;;4.10;;
45039;SDS011;30778;53.574;7.770;2023-05-07T14:46:02;3.97;;;3.22;;
45039;SDS011;30778;53.574;7.770;2023-05-07T14:48:28;4.65;;;4.18;;
45039;SDS011;30778;53.574;7.770;2023-05-07T14:50:54;4.85;;;3.75;;
45039;SDS011;30778;53.574;7.770;2023-05-07T14:53:19;3.75;;;3.30;;
45039;SDS011;30778;53.574;7.770;2023-05-07T14:55:45;4.85;;;3.75;;
45039;SDS011;30778;53.574;7.770;2023-05-07T14:58:12;3.92;;;3.45;;
45039;SDS011;30778;53.574;7.770;2023-05-07T15:00:38;6.47;;;4.18;;
45039;SDS011;30778;53.574;7.770;2023-05-07T15:03:07;5.13;;;3.85;;